Аэропорт: Якутск. Якутск

ICAO: UEEE

METAR:
2024-04-22 22:00:00
UEEE 222200Z 02002MPS 9999 SCT040CB 03/M02 Q1006 R23/15//59 NOSIG RMK QFE746
TAF:
2024-04-22 20:00:00
TAF UEEE 222000Z 2221/2403 36003G08MPS 9999 SCT020CB 
  TEMPO 2221/2303 2100 -SHSNRA